sensor_id;sensor_type;location;lat;lon;timestamp;pressure;altitude;pressure_sealevel;temperature
62611;BMP280;48683;48.084;17.272;2022-11-20T00:02:15;100029.06;;;2.50
62611;BMP280;48683;48.084;17.272;2022-11-20T00:04:40;100027.66;;;2.52
62611;BMP280;48683;48.084;17.272;2022-11-20T00:07:05;100032.50;;;2.50
62611;BMP280;48683;48.084;17.272;2022-11-20T00:09:31;100036.59;;;2.48
62611;BMP280;48683;48.084;17.272;2022-11-20T00:11:56;100034.38;;;2.37
62611;BMP280;48683;48.084;17.272;2022-11-20T00:14:21;100029.47;;;2.24
62611;BMP280;48683;48.084;17.272;2022-11-20T00:16:46;100028.91;;;2.18
62611;BMP280;48683;48.084;17.272;2022-11-20T00:19:11;100026.03;;;2.11
62611;BMP280;48683;48.084;17.272;2022-11-20T00:21:37;100026.69;;;2.20
62611;BMP280;48683;48.084;17.272;2022-11-20T00:24:02;100023.06;;;2.25
62611;BMP280;48683;48.084;17.272;2022-11-20T00:26:27;100027.59;;;2.24
62611;BMP280;48683;48.084;17.272;2022-11-20T00:28:56;100025.91;;;2.32
62611;BMP280;48683;48.084;17.272;2022-11-20T00:31:22;100025.25;;;2.35
62611;BMP280;48683;48.084;17.272;2022-11-20T00:33:47;100031.00;;;2.37
62611;BMP280;48683;48.084;17.272;2022-11-20T00:36:13;100041.22;;;2.51
62611;BMP280;48683;48.084;17.272;2022-11-20T00:38:38;100048.94;;;2.56
62611;BMP280;48683;48.084;17.272;2022-11-20T00:41:05;100045.44;;;2.52
62611;BMP280;48683;48.084;17.272;2022-11-20T00:43:31;100033.28;;;2.51
62611;BMP280;48683;48.084;17.272;2022-11-20T00:45:57;100030.81;;;2.58
62611;BMP280;48683;48.084;17.272;2022-11-20T00:48:22;100043.53;;;2.64
62611;BMP280;48683;48.084;17.272;2022-11-20T00:50:47;100041.19;;;2.63
62611;BMP280;48683;48.084;17.272;2022-11-20T00:53:13;100041.19;;;2.63
62611;BMP280;48683;48.084;17.272;2022-11-20T00:55:39;100029.50;;;2.64
62611;BMP280;48683;48.084;17.272;2022-11-20T00:58:04;100033.25;;;2.63
62611;BMP280;48683;48.084;17.272;2022-11-20T01:00:29;100031.72;;;2.50
62611;BMP280;48683;48.084;17.272;2022-11-20T01:02:55;100032.28;;;2.43
62611;BMP280;48683;48.084;17.272;2022-11-20T01:05:20;100040.91;;;2.40
62611;BMP280;48683;48.084;17.272;2022-11-20T01:07:45;100049.28;;;2.42
62611;BMP280;48683;48.084;17.272;2022-11-20T01:10:11;100047.09;;;2.44
62611;BMP280;48683;48.084;17.272;2022-11-20T01:12:36;100045.88;;;2.42
62611;BMP280;48683;48.084;17.272;2022-11-20T01:15:01;100030.75;;;2.42
62611;BMP280;48683;48.084;17.272;2022-11-20T01:17:26;100033.75;;;2.41
62611;BMP280;48683;48.084;17.272;2022-11-20T01:19:51;100032.88;;;2.36
62611;BMP280;48683;48.084;17.272;2022-11-20T01:22:17;100030.41;;;2.44
62611;BMP280;48683;48.084;17.272;2022-11-20T01:24:42;100038.81;;;2.33
62611;BMP280;48683;48.084;17.272;2022-11-20T01:27:07;100034.19;;;2.30
62611;BMP280;48683;48.084;17.272;2022-11-20T01:29:32;100033.41;;;2.30
62611;BMP280;48683;48.084;17.272;2022-11-20T01:31:57;100044.88;;;2.34
62611;BMP280;48683;48.084;17.272;2022-11-20T01:34:23;100054.59;;;2.42
62611;BMP280;48683;48.084;17.272;2022-11-20T01:36:48;100044.44;;;2.44
62611;BMP280;48683;48.084;17.272;2022-11-20T01:39:24;100050.06;;;2.43
62611;BMP280;48683;48.084;17.272;2022-11-20T01:41:50;100050.41;;;2.41
62611;BMP280;48683;48.084;17.272;2022-11-20T01:47:06;100050.06;;;2.43
62611;BMP280;48683;48.084;17.272;2022-11-20T01:49:34;100048.97;;;2.44
62611;BMP280;48683;48.084;17.272;2022-11-20T01:52:03;100050.84;;;2.43
62611;BMP280;48683;48.084;17.272;2022-11-20T01:54:36;100054.38;;;2.47
62611;BMP280;48683;48.084;17.272;2022-11-20T01:57:03;100054.84;;;2.37
62611;BMP280;48683;48.084;17.272;2022-11-20T01:59:31;100044.47;;;2.32
62611;BMP280;48683;48.084;17.272;2022-11-20T02:01:56;100053.94;;;2.45
62611;BMP280;48683;48.084;17.272;2022-11-20T02:04:21;100057.78;;;2.48
62611;BMP280;48683;48.084;17.272;2022-11-20T02:06:48;100058.03;;;2.43
62611;BMP280;48683;48.084;17.272;2022-11-20T02:09:15;100060.78;;;2.34
62611;BMP280;48683;48.084;17.272;2022-11-20T02:11:41;100058.69;;;2.39
62611;BMP280;48683;48.084;17.272;2022-11-20T02:14:06;100058.03;;;2.43
62611;BMP280;48683;48.084;17.272;2022-11-20T02:16:37;100068.41;;;2.48
62611;BMP280;48683;48.084;17.272;2022-11-20T02:19:04;100057.56;;;2.53
62611;BMP280;48683;48.084;17.272;2022-11-20T02:21:42;100056.91;;;2.56
62611;BMP280;48683;48.084;17.272;2022-11-20T02:29:28;100063.06;;;2.60
62611;BMP280;48683;48.084;17.272;2022-11-20T02:31:55;100060.66;;;2.55
62611;BMP280;48683;48.084;17.272;2022-11-20T02:34:21;100056.44;;;2.54
62611;BMP280;48683;48.084;17.272;2022-11-20T02:36:47;100054.59;;;2.42
62611;BMP280;48683;48.084;17.272;2022-11-20T02:39:13;100053.06;;;2.29
62611;BMP280;48683;48.084;17.272;2022-11-20T02:41:41;100052.41;;;2.20
62611;BMP280;48683;48.084;17.272;2022-11-20T02:44:06;100043.59;;;2.16
62611;BMP280;48683;48.084;17.272;2022-11-20T02:46:32;100043.69;;;2.19
62611;BMP280;48683;48.084;17.272;2022-11-20T02:48:57;100050.19;;;2.22
62611;BMP280;48683;48.084;17.272;2022-11-20T02:51:24;100047.69;;;2.25
62611;BMP280;48683;48.084;17.272;2022-11-20T02:53:49;100044.00;;;2.30
62611;BMP280;48683;48.084;17.272;2022-11-20T02:56:14;100050.44;;;2.29
62611;BMP280;48683;48.084;17.272;2022-11-20T02:58:40;100057.81;;;2.35
62611;BMP280;48683;48.084;17.272;2022-11-20T03:01:05;100050.28;;;2.37
62611;BMP280;48683;48.084;17.272;2022-11-20T03:03:30;100056.25;;;2.47
62611;BMP280;48683;48.084;17.272;2022-11-20T03:05:58;100062.97;;;2.56
62611;BMP280;48683;48.084;17.272;2022-11-20T03:08:23;100068.91;;;2.65
62611;BMP280;48683;48.084;17.272;2022-11-20T03:10:48;100040.06;;;2.76
62611;BMP280;48683;48.084;17.272;2022-11-20T03:13:13;100016.75;;;2.69
62611;BMP280;48683;48.084;17.272;2022-11-20T03:15:38;100014.56;;;2.71
62611;BMP280;48683;48.084;17.272;2022-11-20T03:18:04;100009.34;;;2.75
62611;BMP280;48683;48.084;17.272;2022-11-20T03:20:29;100007.94;;;2.65
62611;BMP280;48683;48.084;17.272;2022-11-20T03:22:54;100008.44;;;2.55
62611;BMP280;48683;48.084;17.272;2022-11-20T03:25:20;100007.09;;;2.49
62611;BMP280;48683;48.084;17.272;2022-11-20T03:27:45;100001.47;;;2.51
62611;BMP280;48683;48.084;17.272;2022-11-20T03:30:11;100009.31;;;2.47
62611;BMP280;48683;48.084;17.272;2022-11-20T03:32:36;100017.50;;;2.42
62611;BMP280;48683;48.084;17.272;2022-11-20T03:35:01;100022.47;;;2.44
62611;BMP280;48683;48.084;17.272;2022-11-20T03:37:26;100022.03;;;2.42
62611;BMP280;48683;48.084;17.272;2022-11-20T03:39:52;100024.66;;;2.42
62611;BMP280;48683;48.084;17.272;2022-11-20T03:42:17;100023.69;;;2.46
62611;BMP280;48683;48.084;17.272;2022-11-20T03:45:01;100011.97;;;2.47
62611;BMP280;48683;48.084;17.272;2022-11-20T03:47:26;100016.28;;;2.52
62611;BMP280;48683;48.084;17.272;2022-11-20T03:49:51;100022.78;;;2.54
62611;BMP280;48683;48.084;17.272;2022-11-20T03:52:16;100025.88;;;2.56
62611;BMP280;48683;48.084;17.272;2022-11-20T03:54:42;100030.28;;;2.64
62611;BMP280;48683;48.084;17.272;2022-11-20T03:57:07;100032.47;;;2.62
62611;BMP280;48683;48.084;17.272;2022-11-20T03:59:32;100021.53;;;2.64
62611;BMP280;48683;48.084;17.272;2022-11-20T04:01:57;100009.63;;;2.58
62611;BMP280;48683;48.084;17.272;2022-11-20T04:04:22;100010.19;;;2.51
62611;BMP280;48683;48.084;17.272;2022-11-20T04:06:48;100005.81;;;2.43
62611;BMP280;48683;48.084;17.272;2022-11-20T04:09:13;100010.88;;;2.48
62611;BMP280;48683;48.084;17.272;2022-11-20T04:11:39;100002.47;;;2.46
62611;BMP280;48683;48.084;17.272;2022-11-20T04:14:05;99995.31;;;2.34
62611;BMP280;48683;48.084;17.272;2022-11-20T04:16:31;99984.19;;;2.41
62611;BMP280;48683;48.084;17.272;2022-11-20T04:18:58;99992.56;;;2.43
62611;BMP280;48683;48.084;17.272;2022-11-20T04:21:24;99995.09;;;2.39
62611;BMP280;48683;48.084;17.272;2022-11-20T04:23:50;99987.03;;;2.48
62611;BMP280;48683;48.084;17.272;2022-11-20T04:26:15;99982.81;;;2.47
62611;BMP280;48683;48.084;17.272;2022-11-20T04:28:40;99988.91;;;2.48
62611;BMP280;48683;48.084;17.272;2022-11-20T04:31:06;99993.72;;;2.58
62611;BMP280;48683;48.084;17.272;2022-11-20T04:33:32;99997.16;;;2.58
62611;BMP280;48683;48.084;17.272;2022-11-20T04:36:05;99991.16;;;2.61
62611;BMP280;48683;48.084;17.272;2022-11-20T04:38:31;99992.72;;;2.62
62611;BMP280;48683;48.084;17.272;2022-11-20T04:40:57;99981.69;;;2.60
62611;BMP280;48683;48.084;17.272;2022-11-20T04:43:23;99977.50;;;2.59
62611;BMP280;48683;48.084;17.272;2022-11-20T04:45:51;99972.97;;;2.60
62611;BMP280;48683;48.084;17.272;2022-11-20T04:48:16;99968.00;;;2.58
62611;BMP280;48683;48.084;17.272;2022-11-20T04:50:42;99977.91;;;2.61
62611;BMP280;48683;48.084;17.272;2022-11-20T04:53:07;99971.97;;;2.64
62611;BMP280;48683;48.084;17.272;2022-11-20T04:55:32;99971.75;;;2.57
62611;BMP280;48683;48.084;17.272;2022-11-20T04:57:57;99974.66;;;2.52
62611;BMP280;48683;48.084;17.272;2022-11-20T05:00:23;99968.13;;;2.50
62611;BMP280;48683;48.084;17.272;2022-11-20T05:02:48;99969.47;;;2.44
62611;BMP280;48683;48.084;17.272;2022-11-20T05:05:14;99965.19;;;2.39
62611;BMP280;48683;48.084;17.272;2022-11-20T05:07:39;99969.28;;;2.36
62611;BMP280;48683;48.084;17.272;2022-11-20T05:10:04;99962.53;;;2.39
62611;BMP280;48683;48.084;17.272;2022-11-20T05:12:30;99978.22;;;2.44
62611;BMP280;48683;48.084;17.272;2022-11-20T05:14:56;99986.03;;;2.53
62611;BMP280;48683;48.084;17.272;2022-11-20T05:17:21;99976.94;;;2.54
62611;BMP280;48683;48.084;17.272;2022-11-20T05:19:46;99968.38;;;2.45
62611;BMP280;48683;48.084;17.272;2022-11-20T05:22:11;99974.34;;;2.42
62611;BMP280;48683;48.084;17.272;2022-11-20T05:24:36;99976.66;;;2.43
62611;BMP280;48683;48.084;17.272;2022-11-20T05:27:02;99964.97;;;2.44
62611;BMP280;48683;48.084;17.272;2022-11-20T05:29:27;99969.59;;;2.47
62611;BMP280;48683;48.084;17.272;2022-11-20T05:31:52;99957.25;;;2.39
62611;BMP280;48683;48.084;17.272;2022-11-20T05:34:17;99961.34;;;2.36
62611;BMP280;48683;48.084;17.272;2022-11-20T05:36:42;99961.84;;;2.42
62611;BMP280;48683;48.084;17.272;2022-11-20T05:39:07;99968.03;;;2.46
62611;BMP280;48683;48.084;17.272;2022-11-20T05:41:33;99972.56;;;2.46
62611;BMP280;48683;48.084;17.272;2022-11-20T05:43:58;99980.28;;;2.51
62611;BMP280;48683;48.084;17.272;2022-11-20T05:46:23;99975.75;;;2.51
62611;BMP280;48683;48.084;17.272;2022-11-20T05:48:49;99976.84;;;2.50
62611;BMP280;48683;48.084;17.272;2022-11-20T05:51:15;99964.38;;;2.51
62611;BMP280;48683;48.084;17.272;2022-11-20T05:53:41;99971.56;;;2.50
62611;BMP280;48683;48.084;17.272;2022-11-20T05:56:07;99972.66;;;2.49
62611;BMP280;48683;48.084;17.272;2022-11-20T05:58:34;99979.78;;;2.61
62611;BMP280;48683;48.084;17.272;2022-11-20T06:01:07;99980.72;;;2.53
62611;BMP280;48683;48.084;17.272;2022-11-20T06:03:33;99979.19;;;2.52
62611;BMP280;48683;48.084;17.272;2022-11-20T06:05:58;99990.44;;;2.49
62611;BMP280;48683;48.084;17.272;2022-11-20T06:08:24;99988.13;;;2.47
62611;BMP280;48683;48.084;17.272;2022-11-20T06:10:49;99993.09;;;2.49
62611;BMP280;48683;48.084;17.272;2022-11-20T06:13:14;99999.28;;;2.53
62611;BMP280;48683;48.084;17.272;2022-11-20T06:15:39;100002.03;;;2.56
62611;BMP280;48683;48.084;17.272;2022-11-20T06:18:04;100003.31;;;2.62
62611;BMP280;48683;48.084;17.272;2022-11-20T06:20:30;100006.28;;;2.61
62611;BMP280;48683;48.084;17.272;2022-11-20T06:22:55;100013.63;;;2.52
62611;BMP280;48683;48.084;17.272;2022-11-20T06:25:20;100020.47;;;2.53
62611;BMP280;48683;48.084;17.272;2022-11-20T06:27:45;100027.41;;;2.57
62611;BMP280;48683;48.084;17.272;2022-11-20T06:30:11;100028.72;;;2.63
62611;BMP280;48683;48.084;17.272;2022-11-20T06:32:36;100031.78;;;2.65
62611;BMP280;48683;48.084;17.272;2022-11-20T06:35:01;100033.78;;;2.68
62611;BMP280;48683;48.084;17.272;2022-11-20T06:37:26;100035.66;;;2.68
62611;BMP280;48683;48.084;17.272;2022-11-20T06:39:52;100022.06;;;2.69
62611;BMP280;48683;48.084;17.272;2022-11-20T06:42:17;100019.00;;;2.67
62611;BMP280;48683;48.084;17.272;2022-11-20T06:44:42;100026.41;;;2.62
62611;BMP280;48683;48.084;17.272;2022-11-20T06:47:07;100032.16;;;2.64
62611;BMP280;48683;48.084;17.272;2022-11-20T06:49:33;100030.78;;;2.70
62611;BMP280;48683;48.084;17.272;2022-11-20T06:51:59;100031.75;;;2.77
62611;BMP280;48683;48.084;17.272;2022-11-20T06:54:24;100041.59;;;2.77
62611;BMP280;48683;48.084;17.272;2022-11-20T06:56:49;100043.13;;;2.78
62611;BMP280;48683;48.084;17.272;2022-11-20T06:59:14;100049.03;;;2.71
62611;BMP280;48683;48.084;17.272;2022-11-20T07:01:40;100052.66;;;2.79
62611;BMP280;48683;48.084;17.272;2022-11-20T07:04:05;100051.41;;;2.76
62611;BMP280;48683;48.084;17.272;2022-11-20T07:06:30;100045.31;;;2.88
62611;BMP280;48683;48.084;17.272;2022-11-20T07:08:56;100054.91;;;2.93
62611;BMP280;48683;48.084;17.272;2022-11-20T07:11:21;100055.34;;;2.95
62611;BMP280;48683;48.084;17.272;2022-11-20T07:13:46;100060.53;;;3.03
62611;BMP280;48683;48.084;17.272;2022-11-20T07:16:11;100060.63;;;3.07
62611;BMP280;48683;48.084;17.272;2022-11-20T07:18:37;100066.88;;;3.14
62611;BMP280;48683;48.084;17.272;2022-11-20T07:21:02;100074.94;;;3.18
62611;BMP280;48683;48.084;17.272;2022-11-20T07:23:28;100072.72;;;3.20
62611;BMP280;48683;48.084;17.272;2022-11-20T07:25:53;100075.34;;;3.20
62611;BMP280;48683;48.084;17.272;2022-11-20T07:28:18;100083.00;;;3.21
62611;BMP280;48683;48.084;17.272;2022-11-20T07:30:48;100085.75;;;3.25
62611;BMP280;48683;48.084;17.272;2022-11-20T07:33:14;100085.75;;;3.25
62611;BMP280;48683;48.084;17.272;2022-11-20T07:35:39;100086.06;;;3.23
62611;BMP280;48683;48.084;17.272;2022-11-20T07:38:04;100089.16;;;3.25
62611;BMP280;48683;48.084;17.272;2022-11-20T07:40:29;100091.38;;;3.23
62611;BMP280;48683;48.084;17.272;2022-11-20T07:42:55;100094.13;;;3.27
62611;BMP280;48683;48.084;17.272;2022-11-20T07:45:21;100096.53;;;3.32
62611;BMP280;48683;48.084;17.272;2022-11-20T07:47:47;100095.09;;;3.34
62611;BMP280;48683;48.084;17.272;2022-11-20T07:50:13;100097.41;;;3.36
62611;BMP280;48683;48.084;17.272;2022-11-20T07:52:38;100100.25;;;3.43
62611;BMP280;48683;48.084;17.272;2022-11-20T07:55:03;100098.22;;;3.52
62611;BMP280;48683;48.084;17.272;2022-11-20T07:57:29;100104.97;;;3.50
62611;BMP280;48683;48.084;17.272;2022-11-20T07:59:54;100103.53;;;3.52
62611;BMP280;48683;48.084;17.272;2022-11-20T08:02:19;100095.75;;;3.59
62611;BMP280;48683;48.084;17.272;2022-11-20T08:04:44;100098.16;;;3.64
62611;BMP280;48683;48.084;17.272;2022-11-20T08:07:10;100098.94;;;3.65
62611;BMP280;48683;48.084;17.272;2022-11-20T08:09:35;100099.09;;;3.72
62611;BMP280;48683;48.084;17.272;2022-11-20T08:12:00;100099.97;;;3.76
62611;BMP280;48683;48.084;17.272;2022-11-20T08:14:44;100097.13;;;3.69
62611;BMP280;48683;48.084;17.272;2022-11-20T08:17:09;100105.09;;;3.69
62611;BMP280;48683;48.084;17.272;2022-11-20T08:19:35;100106.19;;;3.68
62611;BMP280;48683;48.084;17.272;2022-11-20T08:22:00;100111.28;;;3.73
62611;BMP280;48683;48.084;17.272;2022-11-20T08:24:25;100117.09;;;3.78
62611;BMP280;48683;48.084;17.272;2022-11-20T08:26:51;100108.88;;;3.83
62611;BMP280;48683;48.084;17.272;2022-11-20T08:29:17;100101.31;;;3.86
62611;BMP280;48683;48.084;17.272;2022-11-20T08:31:42;100109.81;;;3.91
62611;BMP280;48683;48.084;17.272;2022-11-20T08:34:07;100114.03;;;3.92
62611;BMP280;48683;48.084;17.272;2022-11-20T08:36:33;100113.25;;;3.92
62611;BMP280;48683;48.084;17.272;2022-11-20T08:38:59;100111.09;;;3.97
62611;BMP280;48683;48.084;17.272;2022-11-20T08:41:24;100109.22;;;3.98
62611;BMP280;48683;48.084;17.272;2022-11-20T08:43:50;100109.91;;;3.95
62611;BMP280;48683;48.084;17.272;2022-11-20T08:46:19;100093.88;;;4.07
62611;BMP280;48683;48.084;17.272;2022-11-20T08:48:45;100104.19;;;4.08
62611;BMP280;48683;48.084;17.272;2022-11-20T08:51:11;100096.88;;;4.05
62611;BMP280;48683;48.084;17.272;2022-11-20T08:53:36;100096.28;;;4.12
62611;BMP280;48683;48.084;17.272;2022-11-20T08:56:01;100099.38;;;3.98
62611;BMP280;48683;48.084;17.272;2022-11-20T08:58:27;100103.13;;;4.13
62611;BMP280;48683;48.084;17.272;2022-11-20T09:00:52;100101.16;;;4.10
62611;BMP280;48683;48.084;17.272;2022-11-20T09:03:18;100105.13;;;4.16
62611;BMP280;48683;48.084;17.272;2022-11-20T09:05:43;100109.03;;;4.22
62611;BMP280;48683;48.084;17.272;2022-11-20T09:08:08;100102.63;;;4.23
62611;BMP280;48683;48.084;17.272;2022-11-20T09:10:34;100105.69;;;4.25
62611;BMP280;48683;48.084;17.272;2022-11-20T09:12:59;100107.06;;;4.35
62611;BMP280;48683;48.084;17.272;2022-11-20T09:15:25;100108.63;;;4.36
62611;BMP280;48683;48.084;17.272;2022-11-20T09:17:51;100099.06;;;4.50
62611;BMP280;48683;48.084;17.272;2022-11-20T09:20:16;100092.97;;;4.50
62611;BMP280;48683;48.084;17.272;2022-11-20T09:22:42;100079.34;;;4.51
62611;BMP280;48683;48.084;17.272;2022-11-20T09:25:07;100089.00;;;4.59
62611;BMP280;48683;48.084;17.272;2022-11-20T09:27:32;100100.06;;;4.61
62611;BMP280;48683;48.084;17.272;2022-11-20T09:29:58;100100.22;;;4.68
62611;BMP280;48683;48.084;17.272;2022-11-20T09:32:23;100101.97;;;4.61
62611;BMP280;48683;48.084;17.272;2022-11-20T09:34:48;100095.41;;;4.74
62611;BMP280;48683;48.084;17.272;2022-11-20T09:37:13;100102.00;;;4.80
62611;BMP280;48683;48.084;17.272;2022-11-20T09:39:39;100089.53;;;4.84
62611;BMP280;48683;48.084;17.272;2022-11-20T09:42:08;100079.03;;;4.91
62611;BMP280;48683;48.084;17.272;2022-11-20T09:44:42;100092.56;;;5.02
62611;BMP280;48683;48.084;17.272;2022-11-20T09:54:39;100087.66;;;5.23
62611;BMP280;48683;48.084;17.272;2022-11-20T09:57:09;100092.06;;;5.15
62611;BMP280;48683;48.084;17.272;2022-11-20T09:59:42;100090.81;;;5.29
62611;BMP280;48683;48.084;17.272;2022-11-20T10:02:14;100074.91;;;5.32
62611;BMP280;48683;48.084;17.272;2022-11-20T10:04:40;100077.13;;;5.30
62611;BMP280;48683;48.084;17.272;2022-11-20T10:07:12;100076.78;;;5.32
62611;BMP280;48683;48.084;17.272;2022-11-20T10:09:39;100071.75;;;5.26
62611;BMP280;48683;48.084;17.272;2022-11-20T10:12:12;100073.75;;;5.33
62611;BMP280;48683;48.084;17.272;2022-11-20T10:19:47;100074.22;;;5.58
62611;BMP280;48683;48.084;17.272;2022-11-20T10:22:33;100075.66;;;5.52
62611;BMP280;48683;48.084;17.272;2022-11-20T10:27:47;100072.56;;;5.50
62611;BMP280;48683;48.084;17.272;2022-11-20T10:30:18;100065.81;;;5.56
62611;BMP280;48683;48.084;17.272;2022-11-20T10:33:19;100057.56;;;5.42
62611;BMP280;48683;48.084;17.272;2022-11-20T10:35:44;100062.88;;;5.42
62611;BMP280;48683;48.084;17.272;2022-11-20T10:38:14;100071.16;;;5.56
62611;BMP280;48683;48.084;17.272;2022-11-20T10:40:42;100073.75;;;5.52
62611;BMP280;48683;48.084;17.272;2022-11-20T10:43:19;100055.69;;;5.42
62611;BMP280;48683;48.084;17.272;2022-11-20T10:45:57;100051.25;;;5.50
62611;BMP280;48683;48.084;17.272;2022-11-20T10:48:24;100061.44;;;5.44
62611;BMP280;48683;48.084;17.272;2022-11-20T10:51:10;100054.56;;;5.43
62611;BMP280;48683;48.084;17.272;2022-11-20T10:56:07;100047.34;;;5.44
62611;BMP280;48683;48.084;17.272;2022-11-20T11:01:06;100049.59;;;5.42
62611;BMP280;48683;48.084;17.272;2022-11-20T11:03:38;100043.69;;;5.29
62611;BMP280;48683;48.084;17.272;2022-11-20T11:06:07;100043.78;;;5.36
62611;BMP280;48683;48.084;17.272;2022-11-20T11:08:35;100027.75;;;5.33
62611;BMP280;48683;48.084;17.272;2022-11-20T11:11:02;100029.53;;;5.25
62611;BMP280;48683;48.084;17.272;2022-11-20T11:13:32;100034.75;;;5.41
62611;BMP280;48683;48.084;17.272;2022-11-20T11:15:57;100024.00;;;5.37
62611;BMP280;48683;48.084;17.272;2022-11-20T11:18:33;100030.00;;;5.53
62611;BMP280;48683;48.084;17.272;2022-11-20T11:20:59;100033.69;;;5.68
62611;BMP280;48683;48.084;17.272;2022-11-20T11:23:30;100031.50;;;5.73
62611;BMP280;48683;48.084;17.272;2022-11-20T11:25:56;100033.75;;;5.71
62611;BMP280;48683;48.084;17.272;2022-11-20T11:28:23;100023.09;;;5.71
62611;BMP280;48683;48.084;17.272;2022-11-20T11:30:51;100022.63;;;5.66
62611;BMP280;48683;48.084;17.272;2022-11-20T11:33:24;100028.06;;;5.73
62611;BMP280;48683;48.084;17.272;2022-11-20T11:35:53;100028.22;;;5.84
62611;BMP280;48683;48.084;17.272;2022-11-20T11:38:23;100017.66;;;5.87
62611;BMP280;48683;48.084;17.272;2022-11-20T11:40:53;100019.25;;;5.92
62611;BMP280;48683;48.084;17.272;2022-11-20T11:43:22;100017.81;;;5.98
62611;BMP280;48683;48.084;17.272;2022-11-20T11:48:54;100014.13;;;6.06
62611;BMP280;48683;48.084;17.272;2022-11-20T11:51:20;100006.03;;;5.99
62611;BMP280;48683;48.084;17.272;2022-11-20T11:53:45;100000.59;;;5.92
62611;BMP280;48683;48.084;17.272;2022-11-20T11:56:10;100004.06;;;5.96
62611;BMP280;48683;48.084;17.272;2022-11-20T12:04:10;100008.44;;;5.85
62611;BMP280;48683;48.084;17.272;2022-11-20T12:06:38;100003.78;;;5.78
62611;BMP280;48683;48.084;17.272;2022-11-20T12:09:08;100010.00;;;5.86
62611;BMP280;48683;48.084;17.272;2022-11-20T12:11:45;100005.91;;;5.92
62611;BMP280;48683;48.084;17.272;2022-11-20T12:14:16;100001.19;;;5.82
62611;BMP280;48683;48.084;17.272;2022-11-20T12:16:44;99998.16;;;5.83
62611;BMP280;48683;48.084;17.272;2022-11-20T12:19:10;99995.03;;;5.78
62611;BMP280;48683;48.084;17.272;2022-11-20T12:21:57;99999.41;;;5.89
62611;BMP280;48683;48.084;17.272;2022-11-20T12:39:58;100003.38;;;5.99
62611;BMP280;48683;48.084;17.272;2022-11-20T12:42:39;100000.72;;;5.99
62611;BMP280;48683;48.084;17.272;2022-11-20T12:56:03;99977.09;;;5.97
62611;BMP280;48683;48.084;17.272;2022-11-20T12:58:37;99966.06;;;5.99
62611;BMP280;48683;48.084;17.272;2022-11-20T13:04:09;99976.56;;;6.14
62611;BMP280;48683;48.084;17.272;2022-11-20T13:06:37;99969.13;;;6.01
62611;BMP280;48683;48.084;17.272;2022-11-20T13:09:04;99969.19;;;6.04
62611;BMP280;48683;48.084;17.272;2022-11-20T13:14:20;99967.97;;;5.98
62611;BMP280;48683;48.084;17.272;2022-11-20T13:17:11;99957.22;;;5.91
62611;BMP280;48683;48.084;17.272;2022-11-20T13:19:35;99968.84;;;6.06
62611;BMP280;48683;48.084;17.272;2022-11-20T13:22:00;99970.88;;;6.16
62611;BMP280;48683;48.084;17.272;2022-11-20T13:24:27;99964.72;;;6.12
62611;BMP280;48683;48.084;17.272;2022-11-20T13:27:02;99965.50;;;6.12
62611;BMP280;48683;48.084;17.272;2022-11-20T13:29:28;99959.03;;;6.13
62611;BMP280;48683;48.084;17.272;2022-11-20T13:32:02;99959.28;;;6.05
62611;BMP280;48683;48.084;17.272;2022-11-20T13:34:27;99955.19;;;6.11
62611;BMP280;48683;48.084;17.272;2022-11-20T13:36:53;99954.97;;;6.23
62611;BMP280;48683;48.084;17.272;2022-11-20T13:39:35;99956.56;;;6.28
62611;BMP280;48683;48.084;17.272;2022-11-20T13:42:01;99948.31;;;6.40
62611;BMP280;48683;48.084;17.272;2022-11-20T13:44:35;99948.94;;;6.26
62611;BMP280;48683;48.084;17.272;2022-11-20T13:47:02;99942.50;;;6.31
62611;BMP280;48683;48.084;17.272;2022-11-20T13:49:37;99945.13;;;6.27
62611;BMP280;48683;48.084;17.272;2022-11-20T14:05:24;99935.75;;;6.40
62611;BMP280;48683;48.084;17.272;2022-11-20T14:07:50;99927.53;;;6.52
62611;BMP280;48683;48.084;17.272;2022-11-20T14:10:20;99928.22;;;6.46
62611;BMP280;48683;48.084;17.272;2022-11-20T14:12:45;99925.16;;;6.44
62611;BMP280;48683;48.084;17.272;2022-11-20T14:15:27;99924.75;;;6.42
62611;BMP280;48683;48.084;17.272;2022-11-20T14:17:52;99924.69;;;6.38
62611;BMP280;48683;48.084;17.272;2022-11-20T14:20:18;99929.63;;;6.36
62611;BMP280;48683;48.084;17.272;2022-11-20T14:22:48;99932.38;;;6.43
62611;BMP280;48683;48.084;17.272;2022-11-20T14:27:41;99916.09;;;6.52
62611;BMP280;48683;48.084;17.272;2022-11-20T14:30:13;99915.69;;;6.50
62611;BMP280;48683;48.084;17.272;2022-11-20T14:32:38;99916.47;;;6.54
62611;BMP280;48683;48.084;17.272;2022-11-20T14:35:08;99912.28;;;6.49
62611;BMP280;48683;48.084;17.272;2022-11-20T14:37:36;99911.06;;;6.47
62611;BMP280;48683;48.084;17.272;2022-11-20T14:40:02;99904.44;;;6.30
62611;BMP280;48683;48.084;17.272;2022-11-20T14:42:28;99909.03;;;6.33
62611;BMP280;48683;48.084;17.272;2022-11-20T14:44:57;99906.22;;;6.22
62611;BMP280;48683;48.084;17.272;2022-11-20T14:47:26;99900.84;;;6.19
62611;BMP280;48683;48.084;17.272;2022-11-20T14:49:52;99903.19;;;6.24
62611;BMP280;48683;48.084;17.272;2022-11-20T14:52:19;99895.06;;;6.13
62611;BMP280;48683;48.084;17.272;2022-11-20T14:54:46;99891.13;;;6.04
62611;BMP280;48683;48.084;17.272;2022-11-20T14:57:25;99889.25;;;6.04
62611;BMP280;48683;48.084;17.272;2022-11-20T14:59:51;99890.31;;;6.00
62611;BMP280;48683;48.084;17.272;2022-11-20T15:02:16;99894.19;;;6.02
62611;BMP280;48683;48.084;17.272;2022-11-20T15:04:48;99888.44;;;6.00
62611;BMP280;48683;48.084;17.272;2022-11-20T15:07:26;99888.72;;;5.95
62611;BMP280;48683;48.084;17.272;2022-11-20T15:10:03;99899.56;;;6.06
62611;BMP280;48683;48.084;17.272;2022-11-20T15:12:30;99902.56;;;6.04
62611;BMP280;48683;48.084;17.272;2022-11-20T15:14:55;99897.63;;;6.03
62611;BMP280;48683;48.084;17.272;2022-11-20T15:17:20;99899.47;;;5.99
62611;BMP280;48683;48.084;17.272;2022-11-20T15:19:46;99903.69;;;6.03
62611;BMP280;48683;48.084;17.272;2022-11-20T15:22:11;99901.75;;;6.00
62611;BMP280;48683;48.084;17.272;2022-11-20T15:24:38;99896.72;;;5.95